Hagersville, Canada
Current Conditions -  °F | °C
As of 5:00 AM on Friday 24 Oct 2014 (Local Time) from CYHM Reporting Station
Clear Clear  
Wind Chill: 32°   Ceiling: Unl
Heat Index: 36°   Visibility: 15mi
Dew Point: 36°   Wind: 5mph
Humidity: 100%   Direction: 280°W
Pressure: 30.05"   Gusts: NA
Location:  42.95°N, 80.05°W
Report Text: CYHM 240900Z 28004KT 15SM SKC 02/02 A3005 RMK SLP180
Loading
Personal Weather Stations






























Interactive Weather Map
Tropical Storm Tracking
New forecast layout! Learn more

10-Day Weather Forecast

Advertisements
Track Severe Weather on mobile